FMNM

Amborovy Airport

Madagascar
METAR FMNM 170500Z 11006KT 9999 FEW020CB 27/20 Q1013 NOSIG
Observed Flight Rules
Dec-17 @ 05:00 UTC (an hour ago) Visual Flight Rules
Wind Visibility Clouds
110° at 6 knots 10,000+ meters
  • Few at 2,000' AGL
Temperatures Readings
Current 27°C / 81°F
Dewpoint 20°C / 68°F
Humidity 66%
Altimeter 29.91" Hg
Pressure 1013 hPa
Elevation 18
METAR FMNM 170500Z 11006KT 9999 FEW020CB 27/20 Q1013 NOSIG
Observed Flight Rules
Dec-17 @ 05:00 UTC
(an hour ago)
VFR
Wind Visibility
110° at 6 knots 10,000+ meters
Clouds
  • Few at 2,000' AGL
Temperature Dewpoint
27°C / 81°F 20°C / 68°F
Humidity Altimeter Pressure
66% 29.91" Hg 1013 hPa